Terminal Aerodrome Forecast
Issued by NWS

Home | Current Version | Previous Version | Text Only | Print | Product List | Glossary On
Versions: 1 2 3 4 5 6 7 8 9 10 11 12 13 14 15 16
000
FTUS46 KMTR 231737
TAFSTS
TAF
KSTS 231737Z 2318/2418 35006KT P6SM SKC
     FM232200 29010KT P6SM FEW025
     FM240400 30004KT P6SM SKC
     FM240700 00000KT P6SM SKC
     FM241500 35002KT 6SM BR SKC=

USA.gov is the U.S. government's official web portal to all federal, state and local government web resources and services.